createdAt,value
2018-05-09T00:00:40.498Z,33.1
2018-05-09T00:01:40.552Z,33.29
2018-05-09T00:02:40.531Z,33.77
2018-05-09T00:03:40.568Z,33.39
2018-05-09T00:04:40.592Z,33.39
2018-05-09T00:05:40.618Z,33.48
2018-05-09T00:06:40.727Z,33.39
2018-05-09T00:07:40.663Z,33.48
2018-05-09T00:08:40.668Z,33.58
2018-05-09T00:09:40.703Z,33.77
2018-05-09T00:10:40.733Z,33.97
2018-05-09T00:11:40.737Z,33.48
2018-05-09T00:12:40.768Z,33.77
2018-05-09T00:13:40.783Z,33.77
2018-05-09T00:14:40.817Z,33.1
2018-05-09T00:15:40.844Z,33.67
2018-05-09T00:16:40.857Z,33.77
2018-05-09T00:17:40.590Z,33.58
2018-05-09T00:18:40.906Z,33.87
2018-05-09T00:19:40.931Z,33.77
2018-05-09T00:20:40.681Z,33.97
2018-05-09T00:21:40.690Z,33.67
2018-05-09T00:22:40.996Z,33.67
2018-05-09T00:23:40.731Z,33.77
2018-05-09T00:24:41.039Z,33.97
2018-05-09T00:25:41.068Z,33.97
2018-05-09T00:26:41.097Z,34.16
2018-05-09T00:27:41.109Z,33.85
2018-05-09T00:28:40.844Z,33.66
2018-05-09T00:29:41.158Z,33.58
2018-05-09T00:30:41.187Z,34.16
2018-05-09T00:31:41.202Z,33.85
2018-05-09T00:32:41.216Z,34.14
2018-05-09T00:33:40.954Z,33.66
2018-05-09T00:34:41.257Z,34.53
2018-05-09T00:35:40.999Z,34.43
2018-05-09T00:36:41.302Z,34.43
2018-05-09T00:37:41.343Z,34.14
2018-05-09T00:38:41.361Z,34.43
2018-05-09T00:39:41.385Z,33.95
2018-05-09T00:40:41.398Z,34.33
2018-05-09T00:41:41.155Z,34.14
2018-05-09T00:42:41.449Z,34.14
2018-05-09T00:43:41.467Z,34.62
2018-05-09T00:44:41.486Z,34.72
2018-05-09T00:45:41.506Z,34.81
2018-05-09T00:46:41.524Z,34.91
2018-05-09T00:47:41.285Z,34.53
2018-05-09T00:48:41.596Z,34.62
2018-05-09T00:49:41.603Z,35
2018-05-09T00:50:41.621Z,34.91
2018-05-09T00:51:41.647Z,34.91
2018-05-09T00:52:41.835Z,34.72
2018-05-09T00:53:41.410Z,34.91
2018-05-09T00:54:41.432Z,35
2018-05-09T00:55:41.461Z,34.89
2018-05-09T00:56:41.756Z,35
2018-05-09T00:57:41.494Z,34.91
2018-05-09T00:58:41.812Z,34.8
2018-05-09T00:59:41.826Z,34.99
2018-05-09T01:00:41.849Z,34.89
2018-05-09T01:01:41.873Z,34.99
2018-05-09T01:02:41.908Z,34.89
2018-05-09T01:03:41.913Z,34.7
2018-05-09T01:04:41.938Z,34.99
2018-05-09T01:05:41.968Z,35.38
2018-05-09T01:06:41.709Z,35.38
2018-05-09T01:07:42.004Z,35.38
2018-05-09T01:08:42.034Z,35.18
2018-05-09T01:09:42.056Z,35.28
2018-05-09T01:10:42.069Z,35.47
2018-05-09T01:11:41.809Z,35.18
2018-05-09T01:12:42.117Z,35.28
2018-05-09T01:13:42.239Z,35.28
2018-05-09T01:14:42.159Z,35.28
2018-05-09T01:15:41.898Z,35.18
2018-05-09T01:16:41.923Z,35.38
2018-05-09T01:17:41.959Z,35.38
2018-05-09T01:18:42.246Z,35.28
2018-05-09T01:19:42.280Z,35.18
2018-05-09T01:20:42.302Z,35.47
2018-05-09T01:21:42.319Z,35.66
2018-05-09T01:22:42.377Z,34.99
2018-05-09T01:23:42.079Z,35.57
2018-05-09T01:24:42.395Z,35.47
2018-05-09T01:25:42.397Z,35.47
2018-05-09T01:26:42.417Z,35.47
2018-05-09T01:27:42.456Z,35.85
2018-05-09T01:28:42.468Z,35.76
2018-05-09T01:29:42.218Z,36.33
2018-05-09T01:30:42.508Z,36.32
2018-05-09T01:31:42.553Z,36.51
2018-05-09T01:32:42.297Z,36.13
2018-05-09T01:33:42.594Z,36.03
2018-05-09T01:34:42.326Z,35.93
2018-05-09T01:35:42.638Z,35.93
2018-05-09T01:36:42.662Z,35.83
2018-05-09T01:37:42.680Z,36.32
2018-05-09T01:38:42.698Z,36.22
2018-05-09T01:39:42.882Z,35.93
2018-05-09T01:40:42.450Z,36.32
2018-05-09T01:41:42.770Z,36.32
2018-05-09T01:42:42.554Z,36.6
2018-05-09T01:43:42.958Z,36.32
2018-05-09T01:44:43.050Z,36.22
2018-05-09T01:45:43.105Z,35.93
2018-05-09T01:46:43.126Z,36.7
2018-05-09T01:47:42.772Z,36.6
2018-05-09T01:48:43.105Z,36.7
2018-05-09T01:49:42.789Z,36.7
2018-05-09T01:50:43.142Z,36.7
2018-05-09T01:51:43.178Z,36.6
2018-05-09T01:52:43.047Z,36.99
2018-05-09T01:53:43.013Z,36.7
2018-05-09T01:54:43.057Z,36.51
2018-05-09T01:55:43.060Z,36.9
2018-05-09T01:56:43.091Z,36.9
2018-05-09T01:57:42.833Z,36.8
2018-05-09T01:58:43.141Z,36.22
2018-05-09T01:59:43.151Z,36.41
2018-05-09T02:00:42.901Z,36.51
2018-05-09T02:01:43.184Z,36.13
2018-05-09T02:02:43.216Z,36.8
2018-05-09T02:03:43.230Z,36.22
2018-05-09T02:04:43.253Z,36.9
2018-05-09T02:05:43.297Z,36.49
2018-05-09T02:07:43.367Z,37.64
2018-05-09T02:08:43.342Z,37.57
2018-05-09T02:09:43.081Z,37.35
2018-05-09T02:10:43.388Z,37.07
2018-05-09T02:11:43.420Z,37.35
2018-05-09T02:12:43.433Z,37.07
2018-05-09T02:13:43.540Z,37.35
2018-05-09T02:14:43.204Z,37.45
2018-05-09T02:15:43.507Z,37.45
2018-05-09T02:16:43.516Z,37.45
2018-05-09T02:17:43.856Z,37.74
2018-05-09T02:18:43.555Z,37.74
2018-05-09T02:19:43.306Z,37.84
2018-05-09T02:20:43.597Z,37.84
2018-05-09T02:21:43.625Z,37.93
2018-05-09T02:22:43.427Z,37.64
2018-05-09T02:23:43.684Z,37.74
2018-05-09T02:24:43.690Z,37.45
2018-05-09T02:25:43.724Z,37.84
2018-05-09T02:26:43.449Z,37.84
2018-05-09T02:27:43.487Z,37.74
2018-05-09T02:28:43.791Z,37.93
2018-05-09T02:29:43.805Z,37.35
2018-05-09T02:30:43.911Z,37.64
2018-05-09T02:31:43.850Z,37.35
2018-05-09T02:32:43.647Z,36.88
2018-05-09T02:33:43.931Z,37.35
2018-05-09T02:34:43.925Z,37.35
2018-05-09T02:35:43.954Z,37.45
2018-05-09T02:36:43.956Z,38.12
2018-05-09T02:37:43.705Z,38.22
2018-05-09T02:38:44.003Z,38.02
2018-05-09T02:39:43.736Z,38.02
2018-05-09T02:40:43.777Z,38.2
2018-05-09T02:41:43.786Z,38.01
2018-05-09T02:42:43.858Z,37.62
2018-05-09T02:43:44.117Z,38.2
2018-05-09T02:44:44.156Z,38.29
2018-05-09T02:45:44.155Z,38.59
2018-05-09T02:46:43.890Z,37.91
2018-05-09T02:47:44.207Z,38.29
2018-05-09T02:48:44.231Z,38.59
2018-05-09T02:49:43.945Z,38.49
2018-05-09T02:50:43.966Z,38.59
2018-05-09T02:51:44.263Z,38.59
2018-05-09T02:52:44.302Z,38.39
2018-05-09T02:53:44.329Z,38.49
2018-05-09T02:54:44.413Z,38.1
2018-05-09T02:55:44.369Z,38.29
2018-05-09T02:56:44.390Z,38.49
2018-05-09T02:57:44.510Z,38.49
2018-05-09T02:58:44.436Z,38.49
2018-05-09T02:59:44.444Z,38.39
2018-05-09T03:00:44.458Z,38.49
2018-05-09T03:01:44.496Z,38.39
2018-05-09T03:02:44.515Z,38.68
2018-05-09T03:03:44.548Z,38.68
2018-05-09T03:04:44.550Z,38.87
2018-05-09T03:05:44.582Z,38.68
2018-05-09T03:06:44.601Z,38.87
2018-05-09T03:07:44.608Z,38.68
2018-05-09T03:08:44.649Z,38.87
2018-05-09T03:09:44.657Z,39.06
2018-05-09T03:10:44.691Z,39.06
2018-05-09T03:11:44.711Z,38.96
2018-05-09T03:12:44.739Z,39.26
2018-05-09T03:13:44.737Z,39.26
2018-05-09T03:14:44.770Z,39.23
2018-05-09T03:15:44.794Z,39.06
2018-05-09T03:16:44.816Z,39.14
2018-05-09T03:17:44.819Z,39.04
2018-05-09T03:18:44.574Z,39.26
2018-05-09T03:19:44.860Z,39.04
2018-05-09T03:20:44.600Z,39.81
2018-05-09T03:21:44.916Z,39.45
2018-05-09T03:22:44.973Z,39.33
2018-05-09T03:23:44.965Z,39.43
2018-05-09T03:24:44.962Z,39.43
2018-05-09T03:25:44.987Z,39.53
2018-05-09T03:26:45.019Z,39.81
2018-05-09T03:27:45.098Z,39.43
2018-05-09T03:28:45.048Z,39.33
2018-05-09T03:29:44.821Z,39.81
2018-05-09T03:30:45.095Z,39.53
2018-05-09T03:31:45.112Z,39.81
2018-05-09T03:32:45.144Z,39.62
2018-05-09T03:33:44.883Z,39.43
2018-05-09T03:34:44.899Z,39.81
2018-05-09T03:35:44.929Z,39.72
2018-05-09T03:36:45.229Z,39.72
2018-05-09T03:37:45.237Z,39.43
2018-05-09T03:38:45.269Z,39.72
2018-05-09T03:39:45.278Z,39.53
2018-05-09T03:40:45.304Z,39.91
2018-05-09T03:41:45.320Z,39.91
2018-05-09T03:42:45.343Z,39.72
2018-05-09T03:43:45.390Z,39.53
2018-05-09T03:44:45.388Z,39.91
2018-05-09T03:45:45.426Z,40
2018-05-09T03:46:45.161Z,39.81
2018-05-09T03:47:45.498Z,40
2018-05-09T03:48:45.476Z,39.72
2018-05-09T03:49:45.493Z,39.81
2018-05-09T03:50:45.528Z,39.81
2018-05-09T03:51:45.556Z,39.72
2018-05-09T03:52:45.565Z,40.1
2018-05-09T03:53:45.298Z,39.91
2018-05-09T03:54:45.618Z,40.48
2018-05-09T03:55:45.632Z,40.1
2018-05-09T03:56:45.656Z,40
2018-05-09T03:57:45.712Z,40.48
2018-05-09T03:58:45.675Z,40.29
2018-05-09T03:59:45.421Z,40.29
2018-05-09T04:00:45.731Z,40.48
2018-05-09T04:01:45.745Z,40.29
2018-05-09T04:02:45.480Z,40.29
2018-05-09T04:03:45.794Z,40.48
2018-05-09T04:04:45.806Z,40.48
2018-05-09T04:05:45.843Z,40.67
2018-05-09T04:06:45.866Z,40.48
2018-05-09T04:07:45.864Z,40.39
2018-05-09T04:08:45.891Z,40.48
2018-05-09T04:09:45.910Z,40.29
2018-05-09T04:10:45.950Z,40.39
2018-05-09T04:11:45.951Z,40.47
2018-05-09T04:12:45.701Z,40.39
2018-05-09T04:13:45.998Z,40.56
2018-05-09T04:14:46.145Z,40.58
2018-05-09T04:15:46.035Z,40.48
2018-05-09T04:16:46.056Z,40.77
2018-05-09T04:17:46.078Z,40.75
2018-05-09T04:18:46.098Z,40.56
2018-05-09T04:19:46.119Z,40.66
2018-05-09T04:20:46.362Z,40.66
2018-05-09T04:21:46.176Z,41.04
2018-05-09T04:22:46.241Z,40.67
2018-05-09T04:23:46.198Z,40.84
2018-05-09T04:24:46.238Z,40.56
2018-05-09T04:25:45.960Z,41.04
2018-05-09T04:26:46.258Z,40.66
2018-05-09T04:27:46.297Z,40.66
2018-05-09T04:28:46.318Z,41.13
2018-05-09T04:29:46.321Z,41.04
2018-05-09T04:30:46.343Z,40.56
2018-05-09T04:31:46.365Z,41.04
2018-05-09T04:32:46.438Z,41.13
2018-05-09T04:33:46.407Z,41.04
2018-05-09T04:34:46.423Z,41.04
2018-05-09T04:39:26.914Z,40.84
2018-05-09T04:40:26.931Z,40.87
2018-05-09T04:41:26.953Z,41.33
2018-05-09T04:42:26.704Z,41.33
2018-05-09T04:43:26.996Z,41.42
2018-05-09T04:44:26.755Z,40.94
2018-05-09T04:45:27.056Z,41.13
2018-05-09T04:46:27.068Z,41.33
2018-05-09T04:47:27.108Z,41.8
2018-05-09T04:48:26.838Z,41.61
2018-05-09T04:49:26.909Z,41.9
2018-05-09T04:50:27.155Z,41.8
2018-05-09T04:51:27.237Z,42
2018-05-09T04:52:27.180Z,41.71
2018-05-09T04:53:27.217Z,41.71
2018-05-09T04:54:26.964Z,41.71
2018-05-09T04:55:27.453Z,41.42
2018-05-09T04:56:27.260Z,41.61
2018-05-09T04:57:27.279Z,41.8
2018-05-09T04:58:27.300Z,41.9
2018-05-09T04:59:27.333Z,42
2018-05-09T05:00:27.358Z,42.19
2018-05-09T05:01:27.385Z,41.9
2018-05-09T05:02:27.403Z,41.71
2018-05-09T05:03:27.417Z,41.71
2018-05-09T05:04:27.444Z,41.8
2018-05-09T05:05:27.445Z,42
2018-05-09T05:06:27.469Z,42
2018-05-09T05:07:27.493Z,42.1
2018-05-09T05:08:27.527Z,42.29
2018-05-09T05:09:27.551Z,42.29
2018-05-09T05:10:27.565Z,42.1
2018-05-09T05:11:27.589Z,42.19
2018-05-09T05:12:27.620Z,42.38
2018-05-09T05:13:27.626Z,42.38
2018-05-09T05:14:27.653Z,42
2018-05-09T05:15:27.652Z,42.38
2018-05-09T05:16:27.674Z,42.38
2018-05-09T05:17:27.712Z,42.29
2018-05-09T05:18:27.728Z,42.38
2018-05-09T05:19:27.733Z,42.38
2018-05-09T05:20:27.774Z,42.29
2018-05-09T05:21:27.792Z,42.1
2018-05-09T05:22:27.815Z,42.38
2018-05-09T05:23:27.828Z,42.6
2018-05-09T05:24:27.851Z,42.38
2018-05-09T05:25:27.876Z,42.38
2018-05-09T05:26:27.874Z,42.57
2018-05-09T05:27:27.916Z,42.19
2018-05-09T05:28:27.924Z,42.38
2018-05-09T05:29:27.941Z,42.1
2018-05-09T05:30:27.690Z,42.47
2018-05-09T05:31:28.001Z,42.3
2018-05-09T05:32:27.998Z,42.4
2018-05-09T05:33:28.020Z,42.38
2018-05-09T05:34:28.046Z,42.1
2018-05-09T05:35:28.080Z,42.77
2018-05-09T05:36:28.081Z,43.07
2018-05-09T05:37:28.105Z,42.02
2018-05-09T05:38:28.121Z,42.47
2018-05-09T05:39:27.880Z,42.6
2018-05-09T05:40:28.178Z,42.4
2018-05-09T05:41:28.197Z,42.69
2018-05-09T05:42:27.940Z,42.79
2018-05-09T05:43:27.969Z,42.6
2018-05-09T05:44:28.247Z,42.5
2018-05-09T05:45:28.096Z,42.98
2018-05-09T05:46:28.304Z,43.17
2018-05-09T05:47:28.327Z,43.46
2018-05-09T05:48:28.326Z,43.65
2018-05-09T05:49:28.348Z,42.98
2018-05-09T05:50:28.391Z,43.36
2018-05-09T05:51:28.130Z,43.36
2018-05-09T05:52:28.415Z,43.55
2018-05-09T05:53:28.440Z,43.27
2018-05-09T05:54:28.471Z,43.27
2018-05-09T05:55:28.492Z,43.55
2018-05-09T05:56:28.514Z,43.46
2018-05-09T05:57:28.512Z,43.27
2018-05-09T05:58:28.549Z,43.46
2018-05-09T05:59:28.287Z,43.74
2018-05-09T06:00:28.320Z,43.65
2018-05-09T06:01:28.599Z,43.27
2018-05-09T06:02:28.656Z,42.88
2018-05-09T06:03:28.381Z,42.79
2018-05-09T06:04:28.388Z,42.69
2018-05-09T06:05:28.413Z,43.17
2018-05-09T06:06:28.938Z,43.29
2018-05-09T06:07:28.723Z,43.1
2018-05-09T06:08:28.480Z,42.69
2018-05-09T06:09:28.781Z,42.23
2018-05-09T06:10:28.793Z,42.43
2018-05-09T06:11:28.538Z,42.43
2018-05-09T06:12:28.826Z,42.33
2018-05-09T06:13:28.858Z,42.04
2018-05-09T06:14:28.612Z,42.23
2018-05-09T06:15:28.620Z,42.43
2018-05-09T06:16:28.651Z,42.13
2018-05-09T06:17:28.944Z,42.43
2018-05-09T06:18:28.944Z,42.13
2018-05-09T06:19:28.975Z,42.81
2018-05-09T06:20:29.005Z,42.61
2018-05-09T06:21:29.008Z,42.71
2018-05-09T06:22:29.031Z,42.71
2018-05-09T06:23:29.047Z,43.19
2018-05-09T06:24:28.815Z,43.02
2018-05-09T06:25:29.091Z,43.1
2018-05-09T06:26:28.847Z,43.48
2018-05-09T06:27:28.875Z,43.02
2018-05-09T06:28:29.173Z,43.5
2018-05-09T06:29:29.178Z,43.12
2018-05-09T06:30:28.930Z,43.31
2018-05-09T06:31:28.959Z,43.31
2018-05-09T06:32:28.967Z,43.6
2018-05-09T06:33:29.269Z,43.4
2018-05-09T06:34:29.283Z,43.7
2018-05-09T06:35:29.303Z,43.88
2018-05-09T06:36:29.319Z,43.21
2018-05-09T06:37:29.340Z,43.4
2018-05-09T06:38:29.361Z,43.79
2018-05-09T06:39:29.381Z,43.81
2018-05-09T06:40:29.149Z,43.7
2018-05-09T06:41:29.174Z,43.6
2018-05-09T06:42:29.192Z,43.71
2018-05-09T06:43:29.483Z,43.71
2018-05-09T06:44:29.233Z,43.71
2018-05-09T06:45:29.240Z,43.81
2018-05-09T06:46:29.541Z,44
2018-05-09T06:47:29.280Z,44.1
2018-05-09T06:48:29.302Z,44.29
2018-05-09T06:49:29.592Z,43.81
2018-05-09T06:50:29.343Z,44.29
2018-05-09T06:51:29.374Z,44.48
2018-05-09T06:52:29.667Z,44.1
2018-05-09T06:53:29.713Z,44.38
2018-05-09T06:54:29.703Z,44.41
2018-05-09T06:55:29.741Z,44.41
2018-05-09T06:56:29.763Z,44.31
2018-05-09T06:57:29.776Z,44.41
2018-05-09T06:58:29.793Z,44.41
2018-05-09T06:59:29.825Z,44.12
2018-05-09T07:00:29.819Z,44.51
2018-05-09T07:01:29.574Z,44.51
2018-05-09T07:02:29.613Z,44.41
2018-05-09T07:03:29.897Z,44.31
2018-05-09T07:04:29.909Z,44.12
2018-05-09T07:05:29.946Z,44.41
2018-05-09T07:06:30.488Z,44.24
2018-05-09T07:07:29.710Z,44.34
2018-05-09T07:08:29.732Z,44.24
2018-05-09T07:09:30.034Z,44.43
2018-05-09T07:10:30.063Z,44.05
2018-05-09T07:11:29.785Z,44.14
2018-05-09T07:12:29.820Z,44.24
2018-05-09T07:13:30.114Z,43.66
2018-05-09T07:14:29.865Z,43.78
2018-05-09T07:15:30.138Z,43.97
2018-05-09T07:16:30.174Z,43.68
2018-05-09T07:17:30.206Z,43.68
2018-05-09T07:18:30.212Z,43.68
2018-05-09T07:19:30.243Z,43.78
2018-05-09T07:20:30.247Z,43.88
2018-05-09T07:21:30.269Z,43.97
2018-05-09T07:22:30.069Z,43.51
2018-05-09T07:23:30.333Z,43.51
2018-05-09T07:24:30.345Z,43.61
2018-05-09T07:25:30.093Z,43.03
2018-05-09T07:26:30.117Z,43.71
2018-05-09T07:27:30.399Z,43.34
2018-05-09T07:28:30.440Z,43.51
2018-05-09T07:29:30.449Z,43.15
2018-05-09T07:30:30.460Z,43.15
2018-05-09T07:31:30.490Z,42.96
2018-05-09T07:32:30.524Z,42.76
2018-05-09T07:33:30.261Z,42.76
2018-05-09T07:34:30.568Z,43.05
2018-05-09T07:35:30.636Z,42.88
2018-05-09T07:36:30.332Z,42.59
2018-05-09T07:37:30.359Z,42.59
2018-05-09T07:38:30.650Z,42.49
2018-05-09T07:39:30.402Z,42.4
2018-05-09T07:40:30.677Z,42.21
2018-05-09T07:41:30.717Z,42.23
2018-05-09T07:42:30.719Z,41.84
2018-05-09T07:43:30.748Z,41.46
2018-05-09T07:44:30.780Z,41.17
2018-05-09T07:45:30.528Z,41.28
2018-05-09T07:46:30.924Z,41.19
2018-05-09T07:47:30.927Z,41.38
2018-05-09T07:48:30.862Z,40.99
2018-05-09T07:49:30.893Z,40.7
2018-05-09T07:50:30.896Z,40.7
2018-05-09T07:51:30.663Z,40.15
2018-05-09T07:52:30.956Z,40.34
2018-05-09T07:53:30.966Z,39.76
2018-05-09T07:54:30.729Z,39.76
2018-05-09T07:55:31.234Z,39.66
2018-05-09T07:56:30.761Z,39.29
2018-05-09T07:57:31.054Z,39.01
2018-05-09T07:58:31.095Z,39.11
2018-05-09T07:59:31.115Z,38.54
2018-05-09T08:00:30.857Z,38.74
2018-05-09T08:01:31.167Z,38.35
2018-05-09T08:02:31.185Z,38.45
2018-05-09T08:03:31.205Z,38.45
2018-05-09T08:04:30.962Z,38.64
2018-05-09T08:05:31.260Z,38.64
2018-05-09T08:06:31.273Z,38.66
2018-05-09T08:07:31.294Z,38.37
2018-05-09T08:08:31.307Z,38.37
2018-05-09T08:09:31.328Z,38.37
2018-05-09T08:10:31.367Z,37.7
2018-05-09T08:11:31.372Z,37.7
2018-05-09T08:12:31.411Z,37.88
2018-05-09T08:13:31.153Z,38.08
2018-05-09T08:14:31.461Z,37.9
2018-05-09T08:15:31.486Z,37.32
2018-05-09T08:16:31.499Z,37.71
2018-05-09T08:17:31.524Z,37.9
2018-05-09T08:18:31.540Z,37.13
2018-05-09T08:19:31.568Z,37.62
2018-05-09T08:20:31.600Z,37.23
2018-05-09T08:21:31.605Z,37.24
2018-05-09T08:22:31.370Z,37.05
2018-05-09T08:23:31.647Z,36.66
2018-05-09T08:24:31.672Z,36.86
2018-05-09T08:25:31.715Z,36.47
2018-05-09T08:26:31.719Z,36.96
2018-05-09T08:27:31.742Z,36.4
2018-05-09T08:28:31.783Z,36.98
2018-05-09T08:29:31.798Z,36.68
2018-05-09T08:30:32.100Z,36.58
2018-05-09T08:31:31.575Z,36.58
2018-05-09T08:32:31.600Z,36.51
2018-05-09T08:33:31.904Z,35.64
2018-05-09T08:34:31.929Z,35.83
2018-05-09T08:35:31.949Z,35.73
2018-05-09T08:36:32.008Z,35.54
2018-05-09T08:37:31.974Z,35.15
2018-05-09T08:38:32.027Z,35.27
2018-05-09T08:39:32.039Z,35.56
2018-05-09T08:40:32.053Z,35.46
2018-05-09T08:41:32.091Z,34.97
2018-05-09T08:42:32.115Z,35.17
2018-05-09T08:43:32.509Z,35.17
2018-05-09T08:44:32.160Z,35.09
2018-05-09T08:45:32.167Z,34.7
2018-05-09T08:46:31.941Z,34.89
2018-05-09T08:47:32.236Z,34.31
2018-05-09T08:48:32.245Z,34.62
2018-05-09T08:49:32.008Z,33.92
2018-05-09T08:50:32.295Z,34.23
2018-05-09T08:51:32.056Z,34.43
2018-05-09T08:52:32.076Z,34.04
2018-05-09T08:53:32.385Z,33.75
2018-05-09T08:54:32.134Z,33.84
2018-05-09T08:55:32.535Z,33.96
2018-05-09T08:56:32.171Z,34.16
2018-05-09T08:57:32.726Z,33.96
2018-05-09T08:58:32.781Z,33.28
2018-05-09T08:59:32.633Z,33.39
2018-05-09T09:00:32.892Z,33.11
2018-05-09T09:01:32.869Z,32.62
2018-05-09T09:02:32.645Z,32.81
2018-05-09T09:03:32.934Z,32.73
2018-05-09T09:04:32.927Z,32.44
2018-05-09T09:05:33.203Z,32.24
2018-05-09T09:06:32.967Z,32.05
2018-05-09T09:07:32.889Z,32.17
2018-05-09T09:08:33.119Z,31.77
2018-05-09T09:09:33.091Z,31.48
2018-05-09T09:10:32.983Z,31.38
2018-05-09T09:11:32.826Z,31.29
2018-05-09T09:12:32.774Z,31.21
2018-05-09T09:13:33.057Z,31.29
2018-05-09T09:14:33.500Z,31.3
2018-05-09T09:15:33.391Z,31.3
2018-05-09T09:16:33.137Z,31.11
2018-05-09T09:17:33.161Z,30.82
2018-05-09T09:18:33.415Z,30.44
2018-05-09T09:19:33.354Z,30.83
2018-05-09T09:20:33.353Z,30.83
2018-05-09T09:21:32.944Z,30.54
2018-05-09T09:22:33.088Z,30.35
2018-05-09T09:23:33.412Z,29.78
2018-05-09T09:24:33.009Z,29.97
2018-05-09T09:25:33.786Z,29.97
2018-05-09T09:26:33.080Z,29.88
2018-05-09T09:27:33.706Z,29.97
2018-05-09T09:28:33.538Z,29.89
2018-05-09T09:29:33.448Z,29.79
2018-05-09T09:30:33.477Z,29.11
2018-05-09T09:31:33.572Z,29.21
2018-05-09T09:32:33.586Z,29.22
2018-05-09T09:33:33.822Z,29.13
2018-05-09T09:34:33.666Z,29.22
2018-05-09T09:35:34.015Z,28.44
2018-05-09T09:36:33.627Z,29.03
2018-05-09T09:37:33.799Z,28.55
2018-05-09T09:38:34.192Z,28.75
2018-05-09T09:39:34.158Z,28.75
2018-05-09T09:40:34.200Z,28.65
2018-05-09T09:41:34.133Z,28.57
2018-05-09T09:42:33.673Z,28.08
2018-05-09T09:43:33.868Z,28.18
2018-05-09T09:44:33.786Z,27.98
2018-05-09T09:45:33.867Z,27.69
2018-05-09T09:46:33.741Z,27.89
2018-05-09T09:47:33.759Z,27.69
2018-05-09T09:48:33.557Z,27.4
2018-05-09T09:49:33.807Z,27.3
2018-05-09T09:50:33.852Z,26.92
2018-05-09T09:51:33.877Z,27.22
2018-05-09T09:52:33.899Z,27.12
2018-05-09T09:53:33.924Z,27.31
2018-05-09T09:54:33.677Z,27.51
2018-05-09T09:55:33.999Z,27.61
2018-05-09T09:56:33.994Z,27.51
2018-05-09T09:57:34.042Z,27.12
2018-05-09T09:58:34.055Z,27.22
2018-05-09T09:59:34.082Z,27.12
2018-05-09T10:00:34.106Z,27.22
2018-05-09T10:01:34.277Z,27.12
2018-05-09T10:02:33.911Z,27.22
2018-05-09T10:03:34.193Z,27.31
2018-05-09T10:04:33.968Z,27.11
2018-05-09T10:05:33.984Z,27.41
2018-05-09T10:06:34.003Z,27.31
2018-05-09T10:07:34.299Z,26.92
2018-05-09T10:08:34.326Z,27.3
2018-05-09T10:09:34.369Z,27.31
2018-05-09T10:10:34.397Z,27.12
2018-05-09T10:11:34.509Z,26.92
2018-05-09T10:12:34.181Z,27.02
2018-05-09T10:13:34.207Z,26.82
2018-05-09T10:14:34.518Z,27.22
2018-05-09T10:15:34.526Z,26.92
2018-05-09T10:16:34.576Z,27.02
2018-05-09T10:17:34.597Z,26.54
2018-05-09T10:18:34.625Z,26.64
2018-05-09T10:19:34.635Z,26.54
2018-05-09T10:20:34.665Z,26.93
2018-05-09T10:21:34.705Z,26.74
2018-05-09T10:22:34.733Z,26.74
2018-05-09T10:23:34.763Z,26.45
2018-05-09T10:24:34.508Z,26.25
2018-05-09T10:25:34.821Z,26.27
2018-05-09T10:26:34.854Z,26.17
2018-05-09T10:27:34.886Z,25.88
2018-05-09T10:28:34.893Z,25.98
2018-05-09T10:29:34.923Z,25.88
2018-05-09T10:30:34.952Z,25.78
2018-05-09T10:31:34.733Z,26.07
2018-05-09T10:32:35.027Z,25.98
2018-05-09T10:33:35.037Z,26.07
2018-05-09T10:34:35.081Z,25.7
2018-05-09T10:35:35.093Z,25.79
2018-05-09T10:36:35.148Z,25.7
2018-05-09T10:37:35.185Z,25.21
2018-05-09T10:38:35.200Z,25.31
2018-05-09T10:39:35.224Z,25.32
2018-05-09T10:40:35.237Z,25.12
2018-05-09T10:41:34.996Z,25.22
2018-05-09T10:42:35.314Z,24.33
2018-05-09T10:43:35.337Z,24.24
2018-05-09T10:44:35.355Z,24.33
2018-05-09T10:45:35.132Z,24.53
2018-05-09T10:46:35.413Z,24.33
2018-05-09T10:47:35.630Z,24.25
2018-05-09T10:52:38.841Z,23.86
2018-05-09T10:53:39.149Z,23.86
2018-05-09T10:54:39.171Z,23.86
2018-05-09T10:55:39.219Z,23.76
2018-05-09T10:56:39.222Z,23.68
2018-05-09T10:57:39.244Z,23.87
2018-05-09T10:58:39.022Z,23.77
2018-05-09T10:59:39.301Z,23.97
2018-05-09T11:00:39.337Z,23.87
2018-05-09T11:01:39.106Z,23.38
2018-05-09T11:02:39.126Z,22.99
2018-05-09T11:03:39.441Z,22.99
2018-05-09T11:04:39.477Z,22.99
2018-05-09T11:05:39.222Z,22.99
2018-05-09T11:06:39.515Z,23.09
2018-05-09T11:07:39.593Z,23.09
2018-05-09T11:08:39.330Z,23.48
2018-05-09T11:09:39.330Z,23.77
2018-05-09T11:10:39.639Z,23.28
2018-05-09T11:11:39.682Z,23.77
2018-05-09T11:12:39.707Z,23.38
2018-05-09T11:13:39.720Z,23.68
2018-05-09T11:14:39.751Z,23.38
2018-05-09T11:15:39.785Z,23.38
2018-05-09T11:16:39.812Z,23.38
2018-05-09T11:17:39.977Z,22.89
2018-05-09T11:18:39.604Z,22.99
2018-05-09T11:19:39.902Z,23.1
2018-05-09T11:20:39.940Z,23
2018-05-09T11:21:39.984Z,23.2
2018-05-09T11:22:39.732Z,22.81
2018-05-09T11:23:40.030Z,22.91
2018-05-09T11:24:39.816Z,23.2
2018-05-09T11:25:40.108Z,23
2018-05-09T11:26:39.949Z,22.81
2018-05-09T11:27:40.196Z,22.91
2018-05-09T11:28:40.178Z,23.11
2018-05-09T11:29:39.947Z,22.52
2018-05-09T11:30:39.984Z,22.72
2018-05-09T11:31:40.270Z,22.52
2018-05-09T11:32:40.346Z,22.72
2018-05-09T11:33:40.345Z,22.44
2018-05-09T11:34:40.103Z,22.53
2018-05-09T11:35:40.130Z,22.73
2018-05-09T11:36:40.432Z,22.63
2018-05-09T11:37:40.504Z,22.35
2018-05-09T11:38:40.487Z,22.45
2018-05-09T11:39:40.528Z,22.45
2018-05-09T11:40:40.279Z,22.35
2018-05-09T11:41:40.320Z,22.64
2018-05-09T11:42:40.630Z,22.45
2018-05-09T11:43:40.379Z,22.25
2018-05-09T11:44:40.666Z,22.35
2018-05-09T11:45:40.717Z,22.16
2018-05-09T11:46:40.739Z,21.97
2018-05-09T11:47:40.756Z,21.48
2018-05-09T11:48:40.794Z,21.48
2018-05-09T11:49:40.839Z,21.48
2018-05-09T11:50:40.588Z,21.19
2018-05-09T11:51:41.028Z,21.09
2018-05-09T11:52:40.929Z,21.48
2018-05-09T11:53:40.690Z,20.79
2018-05-09T11:54:40.993Z,20.89
2018-05-09T11:55:41.008Z,20.59
2018-05-09T11:56:41.034Z,20.7
2018-05-09T11:57:41.083Z,20.4
2018-05-09T11:58:41.097Z,20.2
2018-05-09T11:59:41.145Z,20.01
2018-05-09T12:00:40.908Z,19.62
2018-05-09T12:01:41.197Z,19.92
2018-05-09T12:02:41.351Z,19.72
2018-05-09T12:03:41.280Z,19.72
2018-05-09T12:04:41.304Z,19.72
2018-05-09T12:05:41.332Z,19.62
2018-05-09T12:06:41.356Z,19.72
2018-05-09T12:07:41.384Z,19.72
2018-05-09T12:08:41.424Z,19.92
2018-05-09T12:09:41.445Z,19.92
2018-05-09T12:10:41.830Z,19.72
2018-05-09T12:11:41.511Z,19.72
2018-05-09T12:12:41.599Z,19.83
2018-05-09T12:13:41.314Z,19.64
2018-05-09T12:14:41.620Z,19.54
2018-05-09T12:15:41.652Z,19.24
2018-05-09T12:16:41.688Z,19.04
2018-05-09T12:17:41.759Z,19.44
2018-05-09T12:18:41.731Z,19.34
2018-05-09T12:19:41.756Z,19.84
2018-05-09T12:20:41.798Z,19.94
2018-05-09T12:21:41.825Z,19.84
2018-05-09T12:22:41.851Z,19.93
2018-05-09T12:23:41.904Z,19.83
2018-05-09T12:24:42.093Z,19.93
2018-05-09T12:25:41.965Z,20.03
2018-05-09T12:26:41.720Z,19.83
2018-05-09T12:27:42.073Z,19.54
2018-05-09T12:28:42.047Z,19.24
2018-05-09T12:29:42.101Z,19.24
2018-05-09T12:30:42.104Z,19.44
2018-05-09T12:31:42.136Z,19.04
2018-05-09T12:32:42.171Z,19.44
2018-05-09T12:33:42.209Z,19.45
2018-05-09T12:34:42.246Z,19.45
2018-05-09T12:35:42.281Z,19.06
2018-05-09T12:36:42.028Z,19.24
2018-05-09T12:37:42.125Z,19.25
2018-05-09T12:38:42.361Z,19.25
2018-05-09T12:39:42.412Z,19.35
2018-05-09T12:40:42.445Z,19.45
2018-05-09T12:41:42.459Z,19.45
2018-05-09T12:42:42.221Z,18.96
2018-05-09T12:43:42.531Z,19.06
2018-05-09T12:44:42.556Z,19.15
2018-05-09T12:45:42.606Z,19.06
2018-05-09T12:46:42.631Z,19.06
2018-05-09T12:47:42.389Z,18.87
2018-05-09T12:48:43.009Z,18.87
2018-05-09T12:49:42.731Z,18.87
2018-05-09T12:50:42.754Z,18.37
2018-05-09T12:51:42.523Z,18.57
2018-05-09T12:52:42.835Z,18.18
2018-05-09T12:53:42.589Z,18.37
2018-05-09T12:54:43.005Z,18.57
2018-05-09T12:55:42.925Z,18.68
2018-05-09T12:56:42.968Z,18.68
2018-05-09T12:57:42.988Z,18.58
2018-05-09T12:58:43.016Z,18.58
2018-05-09T12:59:43.042Z,18.38
2018-05-09T13:00:43.083Z,18.58
2018-05-09T13:01:43.111Z,18.48
2018-05-09T13:02:42.868Z,18.68
2018-05-09T13:03:43.167Z,18.58
2018-05-09T13:04:43.214Z,18.48
2018-05-09T13:05:43.233Z,18.77